La rose des vents
Données météo: Semaine 20/04/26 - 26/04/26 (S 17)
Date Horaire Temp. E. Hum. E. P.atmo. Pluie Vent Ø 1mn Direction Ensoleilleme Ev.Tr. Solaire P. de rosée Temp au vent Rafales
20/04/2026 00:00 13,9 °C 93 % 1012,9 hPa 0,0 mm 0,0 km/h (0 Bft) - - 0,00 h 0,000 mm 0 W/m² 12,8 °C 13,9 °C 0,0 km/h (0 Bft)
20/04/2026 01:00 13,9 °C 95 % 1013,1 hPa 0,0 mm 0,0 km/h (0 Bft) - - 0,00 h 0,000 mm 0 W/m² 13,1 °C 13,9 °C 0,0 km/h (0 Bft)
20/04/2026 02:00 14,3 °C 96 % 1012,6 hPa 0,0 mm 0,0 km/h (0 Bft) - - 0,00 h 0,000 mm 0 W/m² 13,6 °C 14,3 °C 0,0 km/h (0 Bft)
20/04/2026 03:00 14,3 °C 96 % 1012,1 hPa 0,0 mm 0,0 km/h (0 Bft) - - 0,00 h 0,000 mm 0 W/m² 13,6 °C 14,3 °C 0,0 km/h (0 Bft)
20/04/2026 04:00 14,1 °C 96 % 1012,2 hPa 0,0 mm 0,0 km/h (0 Bft) - - 0,00 h 0,000 mm 0 W/m² 13,5 °C 14,1 °C 0,0 km/h (0 Bft)
20/04/2026 05:00 14,0 °C 95 % 1011,9 hPa 0,0 mm 0,0 km/h (0 Bft) - - 0,00 h 0,000 mm 0 W/m² 13,2 °C 14,0 °C 0,0 km/h (0 Bft)
20/04/2026 06:00 14,0 °C 93 % 1011,8 hPa 0,0 mm 0,0 km/h (0 Bft) - - 0,00 h 0,000 mm 6 W/m² 12,9 °C 14,0 °C 0,0 km/h (0 Bft)
20/04/2026 07:00 14,1 °C 92 % 1011,9 hPa 0,0 mm 0,0 km/h (0 Bft) - - 0,00 h 0,000 mm 30 W/m² 12,7 °C 14,1 °C 0,0 km/h (0 Bft)
20/04/2026 08:00 14,4 °C 90 % 1012,1 hPa 0,0 mm 0,0 km/h (0 Bft) - - 0,05 h 0,025 mm 93 W/m² 12,8 °C 14,4 °C 0,0 km/h (0 Bft)
20/04/2026 09:00 16,2 °C 89 % 1012,1 hPa 0,0 mm 0,0 km/h (0 Bft) - - 0,10 h 0,051 mm 187 W/m² 14,5 °C 16,2 °C 0,0 km/h (0 Bft)
20/04/2026 10:00 18,5 °C 83 % 1012,2 hPa 0,0 mm 0,0 km/h (0 Bft) - - 0,48 h 0,102 mm 476 W/m² 15,4 °C 18,5 °C 0,0 km/h (0 Bft)
20/04/2026 11:00 19,5 °C 76 % 1011,9 hPa 0,0 mm 0,0 km/h (0 Bft) - - 0,08 h 0,279 mm 241 W/m² 15,2 °C 19,5 °C 0,0 km/h (0 Bft)
20/04/2026 12:00 19,0 °C 77 % 1011,6 hPa 0,0 mm 0,0 km/h (0 Bft) - - 0,00 h 0,152 mm 270 W/m² 14,9 °C 19,0 °C 0,0 km/h (0 Bft)
20/04/2026 13:00 18,9 °C 74 % 1011,2 hPa 0,0 mm 0,0 km/h (0 Bft) - - 0,00 h 0,152 mm 217 W/m² 14,2 °C 18,9 °C 0,0 km/h (0 Bft)
20/04/2026 14:00 18,9 °C 74 % 1010,9 hPa 0,0 mm 0,0 km/h (0 Bft) - - 0,00 h 0,127 mm 237 W/m² 14,2 °C 18,9 °C 0,0 km/h (0 Bft)
20/04/2026 15:00 19,0 °C 77 % 1010,6 hPa 0,0 mm 0,0 km/h (0 Bft) - - 0,00 h 0,127 mm 240 W/m² 14,7 °C 19,0 °C 0,0 km/h (0 Bft)
20/04/2026 16:00 18,8 °C 79 % 1010,0 hPa 0,0 mm 0,0 km/h (0 Bft) - - 0,00 h 0,127 mm 184 W/m² 15,1 °C 18,8 °C 0,0 km/h (0 Bft)
20/04/2026 17:00 18,6 °C 79 % 1009,7 hPa 0,0 mm 0,0 km/h (0 Bft) - - 0,00 h 0,102 mm 139 W/m² 14,8 °C 18,6 °C 0,0 km/h (0 Bft)
20/04/2026 18:00 18,1 °C 81 % 1009,4 hPa 0,0 mm 0,0 km/h (0 Bft) - - 0,00 h 0,076 mm 114 W/m² 14,8 °C 18,1 °C 0,0 km/h (0 Bft)
20/04/2026 19:00 17,5 °C 85 % 1009,2 hPa 0,0 mm 0,0 km/h (0 Bft) - - 0,00 h 0,076 mm 36 W/m² 14,9 °C 17,5 °C 0,0 km/h (0 Bft)
20/04/2026 20:00 16,6 °C 87 % 1009,4 hPa 0,0 mm 0,0 km/h (0 Bft) - - 0,05 h 0,025 mm 11 W/m² 14,5 °C 16,6 °C 0,0 km/h (0 Bft)
20/04/2026 21:00 15,6 °C 89 % 1009,7 hPa 0,0 mm 0,0 km/h (0 Bft) - - 0,00 h 0,000 mm 0 W/m² 13,9 °C 15,6 °C 0,0 km/h (0 Bft)
20/04/2026 22:00 14,6 °C 91 % 1009,9 hPa 0,0 mm 0,0 km/h (0 Bft) - - 0,00 h 0,000 mm 0 W/m² 13,1 °C 14,6 °C 0,0 km/h (0 Bft)
20/04/2026 23:00 14,1 °C 93 % 1009,8 hPa 0,0 mm 0,0 km/h (0 Bft) - - 0,00 h 0,000 mm 0 W/m² 13,0 °C 14,1 °C 0,0 km/h (0 Bft)
21/04/2026 00:00 14,0 °C 94 % 1009,8 hPa 0,0 mm 0,0 km/h (0 Bft) - - 0,00 h 0,000 mm 0 W/m² 13,0 °C 14,0 °C 0,0 km/h (0 Bft)
21/04/2026 01:00 13,5 °C 94 % 1009,7 hPa 0,0 mm 0,0 km/h (0 Bft) - - 0,00 h 0,000 mm 0 W/m² 12,6 °C 13,5 °C 0,0 km/h (0 Bft)
21/04/2026 02:00 12,7 °C 95 % 1009,7 hPa 0,0 mm 0,0 km/h (0 Bft) - - 0,00 h 0,000 mm 0 W/m² 12,0 °C 12,7 °C 0,0 km/h (0 Bft)
21/04/2026 03:00 12,2 °C 96 % 1009,5 hPa 0,0 mm 0,0 km/h (0 Bft) - - 0,00 h 0,000 mm 0 W/m² 11,6 °C 12,2 °C 0,0 km/h (0 Bft)
21/04/2026 04:00 12,1 °C 97 % 1009,7 hPa 0,0 mm 0,0 km/h (0 Bft) - - 0,00 h 0,000 mm 0 W/m² 11,6 °C 12,1 °C 0,0 km/h (0 Bft)
21/04/2026 05:00 12,7 °C 97 % 1009,6 hPa 0,0 mm 0,0 km/h (0 Bft) - - 0,00 h 0,000 mm 0 W/m² 12,2 °C 12,7 °C 0,0 km/h (0 Bft)
21/04/2026 06:00 12,8 °C 97 % 1009,7 hPa 0,0 mm 0,0 km/h (0 Bft) - - 0,00 h 0,000 mm 8 W/m² 12,4 °C 12,8 °C 0,0 km/h (0 Bft)
21/04/2026 07:00 12,7 °C 97 % 1009,8 hPa 0,0 mm 0,0 km/h (0 Bft) - - 0,00 h 0,000 mm 34 W/m² 12,2 °C 12,7 °C 0,0 km/h (0 Bft)
21/04/2026 08:00 13,5 °C 98 % 1009,8 hPa 0,0 mm 0,0 km/h (0 Bft) - - 0,00 h 0,025 mm 102 W/m² 13,1 °C 13,5 °C 0,0 km/h (0 Bft)
21/04/2026 09:00 15,8 °C 93 % 1010,1 hPa 0,0 mm 0,0 km/h (0 Bft) - - 0,48 h 0,051 mm 317 W/m² 14,7 °C 15,8 °C 0,0 km/h (0 Bft)
21/04/2026 10:00 20,0 °C 76 % 1010,1 hPa 0,0 mm 0,0 km/h (0 Bft) - - 0,85 h 0,178 mm 577 W/m² 15,5 °C 20,0 °C 0,0 km/h (0 Bft)
21/04/2026 11:00 21,2 °C 72 % 1010,1 hPa 0,0 mm 0,0 km/h (0 Bft) - - 0,67 h 0,330 mm 668 W/m² 15,9 °C 21,2 °C 0,0 km/h (0 Bft)
21/04/2026 12:00 21,9 °C 67 % 1010,0 hPa 0,0 mm 0,0 km/h (0 Bft) - - 0,57 h 0,381 mm 620 W/m² 15,5 °C 21,9 °C 0,0 km/h (0 Bft)
21/04/2026 13:00 21,3 °C 66 % 1009,9 hPa 0,0 mm 0,0 km/h (0 Bft) - - 0,45 h 0,381 mm 448 W/m² 14,8 °C 21,3 °C 0,0 km/h (0 Bft)
21/04/2026 14:00 20,9 °C 71 % 1010,1 hPa 0,0 mm 0,0 km/h (0 Bft) - - 0,12 h 0,305 mm 334 W/m² 15,5 °C 20,9 °C 0,0 km/h (0 Bft)
21/04/2026 15:00 21,3 °C 68 % 1009,7 hPa 0,0 mm 0,0 km/h (0 Bft) - - 0,52 h 0,203 mm 461 W/m² 15,2 °C 21,3 °C 0,0 km/h (0 Bft)
21/04/2026 16:00 21,9 °C 66 % 1009,3 hPa 0,0 mm 0,0 km/h (0 Bft) - - 0,88 h 0,279 mm 559 W/m² 15,2 °C 21,9 °C 0,0 km/h (0 Bft)
21/04/2026 17:00 21,8 °C 66 % 1008,9 hPa 0,0 mm 0,0 km/h (0 Bft) - - 1,00 h 0,305 mm 423 W/m² 15,2 °C 21,8 °C 0,0 km/h (0 Bft)
21/04/2026 18:00 20,2 °C 69 % 1008,8 hPa 0,0 mm 0,0 km/h (0 Bft) - - 0,33 h 0,254 mm 171 W/m² 14,4 °C 20,2 °C 0,0 km/h (0 Bft)
21/04/2026 19:00 18,5 °C 75 % 1008,7 hPa 0,0 mm 0,0 km/h (0 Bft) - - 0,00 h 0,102 mm 51 W/m² 13,9 °C 18,5 °C 0,0 km/h (0 Bft)
21/04/2026 20:00 16,7 °C 82 % 1009,2 hPa 0,0 mm 0,0 km/h (0 Bft) - - 0,03 h 0,025 mm 11 W/m² 13,7 °C 16,7 °C 0,0 km/h (0 Bft)
21/04/2026 21:00 15,4 °C 88 % 1009,9 hPa 0,0 mm 0,0 km/h (0 Bft) - - 0,00 h 0,000 mm 0 W/m² 13,5 °C 15,4 °C 0,0 km/h (0 Bft)
21/04/2026 22:00 14,5 °C 90 % 1010,3 hPa 0,0 mm 0,0 km/h (0 Bft) - - 0,00 h 0,000 mm 0 W/m² 13,0 °C 14,5 °C 0,0 km/h (0 Bft)
21/04/2026 23:00 14,0 °C 88 % 1010,5 hPa 0,0 mm 0,0 km/h (0 Bft) - - 0,00 h 0,000 mm 0 W/m² 12,0 °C 14,0 °C 0,0 km/h (0 Bft)
22/04/2026 00:00 13,6 °C 88 % 1011,0 hPa 0,0 mm 0,0 km/h (0 Bft) - - 0,00 h 0,000 mm 0 W/m² 11,6 °C 13,6 °C 0,0 km/h (0 Bft)
22/04/2026 01:00 13,4 °C 91 % 1011,3 hPa 0,0 mm 0,0 km/h (0 Bft) - - 0,00 h 0,000 mm 0 W/m² 11,9 °C 13,4 °C 0,0 km/h (0 Bft)
22/04/2026 02:00 13,8 °C 94 % 1011,6 hPa 0,0 mm 0,0 km/h (0 Bft) - - 0,00 h 0,000 mm 0 W/m² 12,8 °C 13,8 °C 0,0 km/h (0 Bft)
22/04/2026 03:00 14,1 °C 94 % 1011,6 hPa 0,0 mm 0,0 km/h (0 Bft) - - 0,00 h 0,000 mm 0 W/m² 13,1 °C 14,1 °C 0,0 km/h (0 Bft)
22/04/2026 04:00 13,8 °C 93 % 1011,7 hPa 0,0 mm 0,0 km/h (0 Bft) - - 0,00 h 0,000 mm 0 W/m² 12,7 °C 13,8 °C 0,0 km/h (0 Bft)
22/04/2026 05:00 13,3 °C 92 % 1011,6 hPa 0,0 mm 0,0 km/h (0 Bft) - - 0,00 h 0,000 mm 0 W/m² 12,1 °C 13,3 °C 0,0 km/h (0 Bft)
22/04/2026 06:00 13,1 °C 93 % 1012,1 hPa 0,0 mm 0,0 km/h (0 Bft) - - 0,00 h 0,000 mm 7 W/m² 12,0 °C 13,1 °C 0,0 km/h (0 Bft)
22/04/2026 07:00 14,2 °C 92 % 1013,1 hPa 0,0 mm 0,0 km/h (0 Bft) - - 0,00 h 0,000 mm 43 W/m² 13,0 °C 14,2 °C 0,0 km/h (0 Bft)
22/04/2026 08:00 15,0 °C 91 % 1013,8 hPa 0,0 mm 0,0 km/h (0 Bft) - - 0,00 h 0,025 mm 53 W/m² 13,5 °C 15,0 °C 0,0 km/h (0 Bft)
22/04/2026 09:00 15,5 °C 89 % 1014,2 hPa 0,0 mm 0,0 km/h (0 Bft) - - 0,00 h 0,025 mm 31 W/m² 13,7 °C 15,5 °C 0,0 km/h (0 Bft)
22/04/2026 10:00 14,9 °C 90 % 1014,9 hPa 0,0 mm 0,0 km/h (0 Bft) - - 0,00 h 0,025 mm 35 W/m² 13,4 °C 14,9 °C 0,0 km/h (0 Bft)
22/04/2026 11:00 14,8 °C 87 % 1015,5 hPa 0,0 mm 0,0 km/h (0 Bft) - - 0,00 h 0,025 mm 86 W/m² 12,7 °C 14,8 °C 0,0 km/h (0 Bft)
22/04/2026 12:00 15,3 °C 83 % 1015,8 hPa 0,0 mm 0,0 km/h (0 Bft) - - 0,00 h 0,051 mm 148 W/m² 12,4 °C 15,3 °C 0,0 km/h (0 Bft)
22/04/2026 13:00 15,4 °C 81 % 1016,1 hPa 0,0 mm 0,0 km/h (0 Bft) - - 0,00 h 0,076 mm 142 W/m² 12,2 °C 15,4 °C 0,0 km/h (0 Bft)
22/04/2026 14:00 15,4 °C 81 % 1016,7 hPa 0,0 mm 0,0 km/h (0 Bft) - - 0,00 h 0,076 mm 127 W/m² 12,2 °C 15,4 °C 0,0 km/h (0 Bft)
22/04/2026 15:00 14,7 °C 87 % 1017,0 hPa 0,2 mm 0,0 km/h (0 Bft) - - 0,00 h 0,076 mm 101 W/m² 12,6 °C 14,7 °C 0,0 km/h (0 Bft)
22/04/2026 16:00 14,3 °C 92 % 1017,1 hPa 0,2 mm 0,0 km/h (0 Bft) - - 0,00 h 0,051 mm 99 W/m² 13,1 °C 14,3 °C 0,0 km/h (0 Bft)
22/04/2026 17:00 14,5 °C 93 % 1017,2 hPa 0,2 mm 0,0 km/h (0 Bft) - - 0,15 h 0,051 mm 195 W/m² 13,4 °C 14,5 °C 0,0 km/h (0 Bft)
22/04/2026 18:00 15,4 °C 88 % 1016,9 hPa 0,0 mm 0,0 km/h (0 Bft) - - 0,50 h 0,102 mm 192 W/m² 13,4 °C 15,4 °C 0,0 km/h (0 Bft)
22/04/2026 19:00 14,9 °C 83 % 1016,9 hPa 0,0 mm 0,0 km/h (0 Bft) - - 0,00 h 0,102 mm 41 W/m² 12,0 °C 14,9 °C 0,0 km/h (0 Bft)
22/04/2026 20:00 14,0 °C 85 % 1017,3 hPa 0,0 mm 0,0 km/h (0 Bft) - - 0,00 h 0,025 mm 8 W/m² 11,5 °C 14,0 °C 0,0 km/h (0 Bft)
22/04/2026 21:00 13,6 °C 85 % 1018,0 hPa 0,0 mm 0,0 km/h (0 Bft) - - 0,00 h 0,000 mm 0 W/m² 11,0 °C 13,6 °C 0,0 km/h (0 Bft)
22/04/2026 22:00 13,6 °C 80 % 1018,5 hPa 0,0 mm 0,0 km/h (0 Bft) - - 0,00 h 0,000 mm 0 W/m² 10,3 °C 13,6 °C 0,0 km/h (0 Bft)
22/04/2026 23:00 12,9 °C 87 % 1019,0 hPa 0,2 mm 0,0 km/h (0 Bft) - - 0,00 h 0,025 mm 0 W/m² 10,8 °C 12,9 °C 0,0 km/h (0 Bft)
23/04/2026 00:00 12,5 °C 88 % 1019,4 hPa 0,0 mm 0,0 km/h (0 Bft) - - 0,00 h 0,000 mm 0 W/m² 10,6 °C 12,5 °C 0,0 km/h (0 Bft)
23/04/2026 01:00 12,4 °C 86 % 1019,8 hPa 0,0 mm 0,0 km/h (0 Bft) - - 0,00 h 0,000 mm 0 W/m² 10,1 °C 12,4 °C 0,0 km/h (0 Bft)
23/04/2026 02:00 12,1 °C 83 % 1019,8 hPa 0,0 mm 0,0 km/h (0 Bft) - - 0,00 h 0,000 mm 0 W/m² 9,3 °C 12,1 °C 0,0 km/h (0 Bft)
23/04/2026 03:00 11,4 °C 84 % 1020,2 hPa 0,0 mm 0,0 km/h (0 Bft) - - 0,00 h 0,025 mm 0 W/m² 8,8 °C 11,4 °C 0,0 km/h (0 Bft)
23/04/2026 04:00 11,0 °C 84 % 1020,6 hPa 0,0 mm 0,0 km/h (0 Bft) - - 0,00 h 0,000 mm 0 W/m² 8,3 °C 11,0 °C 0,0 km/h (0 Bft)
23/04/2026 05:00 11,1 °C 82 % 1020,8 hPa 0,0 mm 0,0 km/h (0 Bft) - - 0,00 h 0,000 mm 0 W/m² 8,1 °C 11,1 °C 0,0 km/h (0 Bft)
23/04/2026 06:00 10,7 °C 82 % 1021,2 hPa 0,2 mm 0,0 km/h (0 Bft) - - 0,02 h 0,025 mm 10 W/m² 7,7 °C 10,7 °C 0,0 km/h (0 Bft)
23/04/2026 07:00 10,7 °C 85 % 1021,9 hPa 0,0 mm 0,0 km/h (0 Bft) - - 0,00 h 0,000 mm 25 W/m² 8,2 °C 10,7 °C 0,0 km/h (0 Bft)
23/04/2026 08:00 11,8 °C 84 % 1022,3 hPa 0,0 mm 0,0 km/h (0 Bft) - - 0,00 h 0,025 mm 50 W/m² 9,3 °C 11,8 °C 0,0 km/h (0 Bft)
23/04/2026 09:00 14,9 °C 75 % 1022,7 hPa 0,0 mm 0,0 km/h (0 Bft) - - 0,73 h 0,025 mm 363 W/m² 10,5 °C 14,9 °C 0,0 km/h (0 Bft)
23/04/2026 10:00 18,1 °C 63 % 1022,7 hPa 0,0 mm 0,0 km/h (0 Bft) - - 0,88 h 0,178 mm 606 W/m² 10,9 °C 18,1 °C 0,0 km/h (0 Bft)
23/04/2026 11:00 19,6 °C 54 % 1022,8 hPa 0,0 mm 0,0 km/h (0 Bft) - - 1,00 h 0,330 mm 770 W/m² 10,1 °C 19,6 °C 0,0 km/h (0 Bft)
23/04/2026 12:00 20,3 °C 49 % 1022,5 hPa 0,0 mm 0,0 km/h (0 Bft) - - 1,00 h 0,432 mm 821 W/m² 9,3 °C 20,3 °C 0,0 km/h (0 Bft)
23/04/2026 13:00 20,5 °C 49 % 1022,2 hPa 0,0 mm 0,0 km/h (0 Bft) - - 1,00 h 0,483 mm 847 W/m² 9,3 °C 20,5 °C 0,0 km/h (0 Bft)
23/04/2026 14:00 20,8 °C 47 % 1021,8 hPa 0,0 mm 0,0 km/h (0 Bft) - - 1,00 h 0,483 mm 820 W/m² 9,0 °C 20,8 °C 0,0 km/h (0 Bft)
23/04/2026 15:00 20,9 °C 46 % 1021,1 hPa 0,0 mm 0,0 km/h (0 Bft) - - 1,00 h 0,483 mm 740 W/m² 8,8 °C 20,9 °C 0,0 km/h (0 Bft)
23/04/2026 16:00 21,3 °C 46 % 1020,0 hPa 0,0 mm 0,0 km/h (0 Bft) - - 1,00 h 0,432 mm 610 W/m² 9,1 °C 21,3 °C 0,0 km/h (0 Bft)
23/04/2026 17:00 20,4 °C 48 % 1019,5 hPa 0,0 mm 0,0 km/h (0 Bft) - - 1,00 h 0,356 mm 446 W/m² 9,0 °C 20,4 °C 0,0 km/h (0 Bft)
23/04/2026 18:00 19,0 °C 50 % 1019,4 hPa 0,0 mm 0,0 km/h (0 Bft) - - 0,82 h 0,254 mm 238 W/m² 8,4 °C 19,0 °C 0,0 km/h (0 Bft)
23/04/2026 19:00 16,9 °C 56 % 1019,1 hPa 0,0 mm 0,0 km/h (0 Bft) - - 0,00 h 0,152 mm 36 W/m² 8,1 °C 16,9 °C 0,0 km/h (0 Bft)
23/04/2026 20:00 15,0 °C 62 % 1019,0 hPa 0,0 mm 0,0 km/h (0 Bft) - - 0,02 h 0,025 mm 10 W/m² 7,7 °C 15,0 °C 0,0 km/h (0 Bft)
23/04/2026 21:00 13,5 °C 69 % 1018,9 hPa 0,0 mm 0,0 km/h (0 Bft) - - 0,00 h 0,000 mm 0 W/m² 7,8 °C 13,5 °C 0,0 km/h (0 Bft)
23/04/2026 22:00 13,6 °C 72 % 1018,7 hPa 0,0 mm 0,0 km/h (0 Bft) - - 0,00 h 0,025 mm 0 W/m² 8,6 °C 13,6 °C 0,0 km/h (0 Bft)
23/04/2026 23:00 13,5 °C 74 % 1018,3 hPa 0,0 mm 0,0 km/h (0 Bft) - - 0,00 h 0,025 mm 0 W/m² 8,9 °C 13,5 °C 0,0 km/h (0 Bft)
24/04/2026 00:00 12,6 °C 76 % 1018,2 hPa 0,0 mm 0,0 km/h (0 Bft) - - 0,00 h 0,025 mm 0 W/m² 8,5 °C 12,6 °C 0,0 km/h (0 Bft)
24/04/2026 01:00 12,5 °C 77 % 1018,1 hPa 0,0 mm 0,0 km/h (0 Bft) - - 0,00 h 0,025 mm 0 W/m² 8,6 °C 12,5 °C 0,0 km/h (0 Bft)
24/04/2026 02:00 12,2 °C 77 % 1017,7 hPa 0,0 mm 0,0 km/h (0 Bft) - - 0,00 h 0,025 mm 0 W/m² 8,2 °C 12,2 °C 0,0 km/h (0 Bft)
24/04/2026 03:00 11,7 °C 78 % 1017,4 hPa 0,0 mm 0,0 km/h (0 Bft) - - 0,00 h 0,025 mm 0 W/m² 8,0 °C 11,7 °C 0,0 km/h (0 Bft)
24/04/2026 04:00 11,7 °C 77 % 1017,2 hPa 0,0 mm 0,0 km/h (0 Bft) - - 0,00 h 0,025 mm 0 W/m² 7,7 °C 11,7 °C 0,0 km/h (0 Bft)
24/04/2026 05:00 11,9 °C 74 % 1017,5 hPa 0,0 mm 0,0 km/h (0 Bft) - - 0,00 h 0,025 mm 0 W/m² 7,3 °C 11,9 °C 0,0 km/h (0 Bft)
24/04/2026 06:00 11,8 °C 72 % 1017,7 hPa 0,0 mm 0,0 km/h (0 Bft) - - 0,00 h 0,025 mm 9 W/m² 6,9 °C 11,8 °C 0,0 km/h (0 Bft)
24/04/2026 07:00 11,9 °C 70 % 1018,2 hPa 0,0 mm 0,0 km/h (0 Bft) - - 0,00 h 0,000 mm 22 W/m² 6,6 °C 11,9 °C 0,0 km/h (0 Bft)
24/04/2026 08:00 13,0 °C 70 % 1018,5 hPa 0,0 mm 0,0 km/h (0 Bft) - - 0,00 h 0,025 mm 36 W/m² 7,7 °C 13,0 °C 0,0 km/h (0 Bft)
24/04/2026 09:00 16,3 °C 66 % 1018,7 hPa 0,0 mm 0,0 km/h (0 Bft) - - 0,75 h 0,025 mm 379 W/m² 9,8 °C 16,3 °C 0,0 km/h (0 Bft)
24/04/2026 10:00 20,9 °C 56 % 1018,5 hPa 0,0 mm 0,0 km/h (0 Bft) - - 1,00 h 0,203 mm 613 W/m² 11,8 °C 20,9 °C 0,0 km/h (0 Bft)
24/04/2026 11:00 22,7 °C 50 % 1018,4 hPa 0,0 mm 0,0 km/h (0 Bft) - - 1,00 h 0,356 mm 746 W/m² 11,7 °C 22,7 °C 0,0 km/h (0 Bft)
24/04/2026 12:00 24,3 °C 48 % 1018,1 hPa 0,0 mm 0,0 km/h (0 Bft) - - 1,00 h 0,457 mm 831 W/m² 12,7 °C 24,3 °C 0,0 km/h (0 Bft)
24/04/2026 13:00 24,5 °C 50 % 1017,5 hPa 0,0 mm 0,0 km/h (0 Bft) - - 1,00 h 0,508 mm 862 W/m² 13,5 °C 24,5 °C 0,0 km/h (0 Bft)
24/04/2026 14:00 23,8 °C 48 % 1017,2 hPa 0,0 mm 0,0 km/h (0 Bft) - - 1,00 h 0,533 mm 830 W/m² 12,0 °C 23,8 °C 0,0 km/h (0 Bft)
24/04/2026 15:00 23,4 °C 42 % 1016,9 hPa 0,0 mm 0,0 km/h (0 Bft) - - 1,00 h 0,508 mm 746 W/m² 9,9 °C 23,4 °C 0,0 km/h (0 Bft)
24/04/2026 16:00 23,2 °C 41 % 1016,5 hPa 0,0 mm 0,0 km/h (0 Bft) - - 1,00 h 0,457 mm 612 W/m² 9,1 °C 23,2 °C 0,0 km/h (0 Bft)
24/04/2026 17:00 22,5 °C 41 % 1016,1 hPa 0,0 mm 0,0 km/h (0 Bft) - - 1,00 h 0,381 mm 450 W/m² 8,5 °C 22,5 °C 0,0 km/h (0 Bft)
24/04/2026 18:00 21,8 °C 48 % 1015,5 hPa 0,0 mm 0,0 km/h (0 Bft) - - 0,83 h 0,279 mm 251 W/m² 10,1 °C 21,8 °C 0,0 km/h (0 Bft)
24/04/2026 19:00 19,7 °C 56 % 1015,3 hPa 0,0 mm 0,0 km/h (0 Bft) - - 0,00 h 0,152 mm 32 W/m² 10,6 °C 19,7 °C 0,0 km/h (0 Bft)
24/04/2026 20:00 16,5 °C 71 % 1015,2 hPa 0,0 mm 0,0 km/h (0 Bft) - - 0,02 h 0,025 mm 9 W/m² 11,2 °C 16,5 °C 0,0 km/h (0 Bft)
24/04/2026 21:00 14,6 °C 79 % 1015,4 hPa 0,0 mm 0,0 km/h (0 Bft) - - 0,00 h 0,000 mm 0 W/m² 11,0 °C 14,6 °C 0,0 km/h (0 Bft)
24/04/2026 22:00 13,5 °C 82 % 1015,3 hPa 0,0 mm 0,0 km/h (0 Bft) - - 0,00 h 0,025 mm 0 W/m² 10,4 °C 13,5 °C 0,0 km/h (0 Bft)
24/04/2026 23:00 12,8 °C 82 % 1015,4 hPa 0,0 mm 0,0 km/h (0 Bft) - - 0,00 h 0,025 mm 0 W/m² 9,8 °C 12,8 °C 0,0 km/h (0 Bft)
25/04/2026 00:00 12,5 °C 84 % 1015,3 hPa 0,0 mm 0,0 km/h (0 Bft) - - 0,00 h 0,025 mm 0 W/m² 9,8 °C 12,5 °C 0,0 km/h (0 Bft)
25/04/2026 01:00 12,1 °C 83 % 1015,4 hPa 0,0 mm 0,0 km/h (0 Bft) - - 0,00 h 0,025 mm 0 W/m² 9,4 °C 12,1 °C 0,0 km/h (0 Bft)
25/04/2026 02:00 11,7 °C 86 % 1015,3 hPa 0,0 mm 0,0 km/h (0 Bft) - - 0,00 h 0,025 mm 0 W/m² 9,5 °C 11,7 °C 0,0 km/h (0 Bft)
25/04/2026 03:00 11,6 °C 89 % 1014,9 hPa 0,0 mm 0,0 km/h (0 Bft) - - 0,00 h 0,000 mm 0 W/m² 9,8 °C 11,6 °C 0,0 km/h (0 Bft)
25/04/2026 04:00 11,5 °C 91 % 1015,1 hPa 0,0 mm 0,0 km/h (0 Bft) - - 0,00 h 0,000 mm 0 W/m² 10,0 °C 11,5 °C 0,0 km/h (0 Bft)
25/04/2026 05:00 11,3 °C 92 % 1015,2 hPa 0,0 mm 0,0 km/h (0 Bft) - - 0,00 h 0,000 mm 0 W/m² 10,1 °C 11,3 °C 0,0 km/h (0 Bft)
25/04/2026 06:00 11,2 °C 93 % 1015,5 hPa 0,0 mm 0,0 km/h (0 Bft) - - 0,02 h 0,000 mm 10 W/m² 10,1 °C 11,2 °C 0,0 km/h (0 Bft)
25/04/2026 07:00 11,2 °C 93 % 1016,0 hPa 0,0 mm 0,0 km/h (0 Bft) - - 0,00 h 0,000 mm 25 W/m² 10,1 °C 11,2 °C 0,0 km/h (0 Bft)
25/04/2026 08:00 12,6 °C 93 % 1016,3 hPa 0,0 mm 0,0 km/h (0 Bft) - - 0,00 h 0,025 mm 48 W/m² 11,5 °C 12,6 °C 0,0 km/h (0 Bft)
25/04/2026 09:00 15,9 °C 83 % 1016,3 hPa 0,0 mm 0,0 km/h (0 Bft) - - 0,80 h 0,025 mm 419 W/m² 13,1 °C 15,9 °C 0,0 km/h (0 Bft)
25/04/2026 10:00 19,4 °C 70 % 1016,1 hPa 0,0 mm 0,0 km/h (0 Bft) - - 0,70 h 0,203 mm 548 W/m² 13,8 °C 19,4 °C 0,0 km/h (0 Bft)
25/04/2026 11:00 21,0 °C 65 % 1016,1 hPa 0,0 mm 0,0 km/h (0 Bft) - - 1,00 h 0,330 mm 807 W/m² 14,1 °C 21,0 °C 0,0 km/h (0 Bft)
25/04/2026 12:00 20,8 °C 67 % 1016,1 hPa 0,0 mm 0,0 km/h (0 Bft) - - 0,68 h 0,457 mm 647 W/m² 14,3 °C 20,8 °C 0,0 km/h (0 Bft)
25/04/2026 13:00 18,4 °C 74 % 1016,1 hPa 0,0 mm 0,0 km/h (0 Bft) - - 0,00 h 0,356 mm 195 W/m² 13,7 °C 18,4 °C 0,0 km/h (0 Bft)
25/04/2026 14:00 17,4 °C 78 % 1016,0 hPa 0,0 mm 0,0 km/h (0 Bft) - - 0,00 h 0,102 mm 160 W/m² 13,5 °C 17,4 °C 0,0 km/h (0 Bft)
25/04/2026 15:00 17,3 °C 80 % 1015,8 hPa 0,0 mm 0,0 km/h (0 Bft) - - 0,00 h 0,102 mm 166 W/m² 13,8 °C 17,3 °C 0,0 km/h (0 Bft)
25/04/2026 16:00 17,7 °C 77 % 1015,2 hPa 0,0 mm 0,0 km/h (0 Bft) - - 0,00 h 0,102 mm 191 W/m² 13,6 °C 17,7 °C 0,0 km/h (0 Bft)
25/04/2026 17:00 18,2 °C 74 % 1015,1 hPa 0,0 mm 0,0 km/h (0 Bft) - - 0,05 h 0,102 mm 214 W/m² 13,4 °C 18,2 °C 0,0 km/h (0 Bft)
25/04/2026 18:00 17,7 °C 75 % 1015,1 hPa 0,0 mm 0,0 km/h (0 Bft) - - 0,45 h 0,127 mm 179 W/m² 13,2 °C 17,7 °C 0,0 km/h (0 Bft)
25/04/2026 19:00 16,9 °C 78 % 1015,1 hPa 0,0 mm 0,0 km/h (0 Bft) - - 0,00 h 0,102 mm 37 W/m² 13,0 °C 16,9 °C 0,0 km/h (0 Bft)
25/04/2026 20:00 15,2 °C 84 % 1015,3 hPa 0,0 mm 0,0 km/h (0 Bft) - - 0,00 h 0,025 mm 10 W/m² 12,6 °C 15,2 °C 0,0 km/h (0 Bft)
25/04/2026 21:00 14,1 °C 90 % 1016,0 hPa 0,0 mm 0,0 km/h (0 Bft) - - 0,00 h 0,000 mm 0 W/m² 12,4 °C 14,1 °C 0,0 km/h (0 Bft)
25/04/2026 22:00 13,6 °C 92 % 1016,0 hPa 0,0 mm 0,0 km/h (0 Bft) - - 0,00 h 0,000 mm 0 W/m² 12,3 °C 13,6 °C 0,0 km/h (0 Bft)
25/04/2026 23:00 13,3 °C 93 % 1016,0 hPa 0,0 mm 0,0 km/h (0 Bft) - - 0,00 h 0,000 mm 0 W/m² 12,1 °C 13,3 °C 0,0 km/h (0 Bft)
26/04/2026 00:00 13,0 °C 93 % 1016,1 hPa 0,0 mm 0,0 km/h (0 Bft) - - 0,00 h 0,000 mm 0 W/m² 12,0 °C 13,0 °C 0,0 km/h (0 Bft)
26/04/2026 01:00 12,6 °C 94 % 1016,1 hPa 0,0 mm 0,0 km/h (0 Bft) - - 0,00 h 0,000 mm 0 W/m² 11,7 °C 12,6 °C 0,0 km/h (0 Bft)
26/04/2026 02:00 12,2 °C 94 % 1015,8 hPa 0,0 mm 0,0 km/h (0 Bft) - - 0,00 h 0,000 mm 0 W/m² 11,2 °C 12,2 °C 0,0 km/h (0 Bft)
26/04/2026 03:00 12,4 °C 96 % 1015,7 hPa 0,0 mm 0,0 km/h (0 Bft) - - 0,00 h 0,000 mm 0 W/m² 11,7 °C 12,4 °C 0,0 km/h (0 Bft)
26/04/2026 04:00 12,8 °C 97 % 1015,5 hPa 0,0 mm 0,0 km/h (0 Bft) - - 0,00 h 0,000 mm 0 W/m² 12,3 °C 12,8 °C 0,0 km/h (0 Bft)
26/04/2026 05:00 13,1 °C 97 % 1015,6 hPa 0,0 mm 0,0 km/h (0 Bft) - - 0,00 h 0,000 mm 0 W/m² 12,6 °C 13,1 °C 0,0 km/h (0 Bft)
26/04/2026 06:00 13,3 °C 97 % 1016,0 hPa 0,0 mm 0,0 km/h (0 Bft) - - 0,00 h 0,000 mm 5 W/m² 12,8 °C 13,3 °C 0,0 km/h (0 Bft)
26/04/2026 07:00 13,4 °C 97 % 1016,4 hPa 0,0 mm 0,0 km/h (0 Bft) - - 0,00 h 0,000 mm 24 W/m² 13,0 °C 13,4 °C 0,0 km/h (0 Bft)
26/04/2026 08:00 14,1 °C 97 % 1016,8 hPa 0,0 mm 0,0 km/h (0 Bft) - - 0,00 h 0,000 mm 106 W/m² 13,6 °C 14,1 °C 0,0 km/h (0 Bft)
26/04/2026 09:00 16,2 °C 89 % 1016,9 hPa 0,0 mm 0,0 km/h (0 Bft) - - 0,48 h 0,051 mm 298 W/m² 14,4 °C 16,2 °C 0,0 km/h (0 Bft)
26/04/2026 10:00 18,0 °C 80 % 1017,3 hPa 0,0 mm 0,0 km/h (0 Bft) - - 0,07 h 0,152 mm 285 W/m² 14,6 °C 18,0 °C 0,0 km/h (0 Bft)
26/04/2026 11:00 17,4 °C 82 % 1017,8 hPa 0,0 mm 0,0 km/h (0 Bft) - - 0,00 h 0,152 mm 201 W/m² 14,3 °C 17,4 °C 0,0 km/h (0 Bft)
26/04/2026 12:00 17,2 °C 84 % 1018,4 hPa 0,0 mm 0,0 km/h (0 Bft) - - 0,00 h 0,102 mm 162 W/m² 14,5 °C 17,2 °C 0,0 km/h (0 Bft)
26/04/2026 13:00 17,0 °C 86 % 1018,6 hPa 0,0 mm 0,0 km/h (0 Bft) - - 0,00 h 0,102 mm 156 W/m² 14,7 °C 17,0 °C 0,0 km/h (0 Bft)
26/04/2026 14:00 16,7 °C 88 % 1018,4 hPa 0,0 mm 0,0 km/h (0 Bft) - - 0,00 h 0,076 mm 157 W/m² 14,7 °C 16,7 °C 0,0 km/h (0 Bft)
26/04/2026 15:00 16,9 °C 86 % 1018,3 hPa 0,0 mm 0,0 km/h (0 Bft) - - 0,00 h 0,076 mm 149 W/m² 14,5 °C 16,9 °C 0,0 km/h (0 Bft)
26/04/2026 16:00 17,3 °C 84 % 1017,8 hPa 0,0 mm 0,0 km/h (0 Bft) - - 0,00 h 0,076 mm 193 W/m² 14,7 °C 17,3 °C 0,0 km/h (0 Bft)
26/04/2026 17:00 17,5 °C 83 % 1017,7 hPa 0,0 mm 0,0 km/h (0 Bft) - - 0,00 h 0,102 mm 127 W/m² 14,5 °C 17,5 °C 0,0 km/h (0 Bft)
26/04/2026 18:00 17,2 °C 83 % 1017,7 hPa 0,0 mm 0,0 km/h (0 Bft) - - 0,00 h 0,076 mm 80 W/m² 14,2 °C 17,2 °C 0,0 km/h (0 Bft)
26/04/2026 19:00 16,8 °C 83 % 1017,5 hPa 0,0 mm 0,0 km/h (0 Bft) - - 0,00 h 0,051 mm 24 W/m² 13,8 °C 16,8 °C 0,0 km/h (0 Bft)
26/04/2026 20:00 16,0 °C 84 % 1017,5 hPa 0,0 mm 0,0 km/h (0 Bft) - - 0,00 h 0,025 mm 8 W/m² 13,4 °C 16,0 °C 0,0 km/h (0 Bft)
26/04/2026 21:00 15,1 °C 90 % 1018,0 hPa 0,0 mm 0,0 km/h (0 Bft) - - 0,00 h 0,000 mm 0 W/m² 13,4 °C 15,1 °C 0,0 km/h (0 Bft)
26/04/2026 22:00 14,7 °C 91 % 1018,3 hPa 0,0 mm 0,0 km/h (0 Bft) - - 0,00 h 0,000 mm 0 W/m² 13,3 °C 14,7 °C 0,0 km/h (0 Bft)
26/04/2026 23:00 14,1 °C 91 % 1018,3 hPa 0,0 mm 0,0 km/h (0 Bft) - - 0,00 h 0,000 mm 0 W/m² 12,7 °C 14,1 °C 0,0 km/h (0 Bft)
Min-Date _ 23/04/26 24/04/26 21/04/26 - 20/04/26 - - - - 24/04/26 23/04/26 20/04/26
_ Min-Heure 06:52 16:02 19:15 - 00:00 - - - - 07:24 06:52 00:00
Minimum _ 10,4 °C 39 % 1008,6 hPa - 0,0 km/h (0 Bft) - - - - 6,2 °C 10,4 °C 0,0 km/h (0 Bft)
Max-Date _ 24/04/26 21/04/26 23/04/26 22/04/26 20/04/26 - 20/04/26 24/04/26 21/04/26 21/04/26 24/04/26 24/04/26
_ Max-Heure 12:53 06:21 11:15 15:34 00:00 - 08:57 14:00 15:00 12:12 12:53 20:12
Maximum _ 24,9 °C 98 % 1022,9 hPa 0,2 mm 0,0 km/h
- - (0 Bft)
- 0,02 h 0,533 mm 1088 W/m² 16,7 °C 24,9 °C 1,6 km/h
S (1 Bft)
Moyenne _ 15,8 °C 80 % 1015,2 hPa #1,0 mm 0,0 km/h (0 Bft) - - #30:38 h #16,041 mm 257 W/m² 12,0 °C 15,8 °C 0,0 km/h (0 Bft)
Roquefort les pins